Time;durP1;ratioP1;P1;durP2;ratioP2;P2;SDS_P1;SDS_P2;PMS_P1;PMS_P2;Temp;Humidity;BMP_temperature;BMP_pressure;BME280_temperature;BME280_humidity;BME280_pressure;Samples;Min_cycle;Max_cycle;Signal;HPM_P1;HPM_P2
2022/04/27 00:00:45;;;;;;;1.47;1.37;;;;;;;22.81;38.48;95009.03;6123988;28;103907;-59
2022/04/27 00:03:47;;;;;;;2.37;1.53;;;;;;;22.83;38.11;95004.16;6151229;28;103873;-60
2022/04/27 00:06:49;;;;;;;1.63;1.50;;;;;;;22.82;38.16;94999.91;6136440;28;104077;-59
2022/04/27 00:09:51;;;;;;;1.97;1.50;;;;;;;22.82;38.50;94999.91;6140273;28;103824;-59
2022/04/27 00:12:52;;;;;;;1.73;1.53;;;;;;;22.83;38.40;94996.16;6137992;28;103986;-59
2022/04/27 00:15:54;;;;;;;2.57;1.60;;;;;;;22.83;37.99;94999.59;6152226;28;104856;-59
2022/04/27 00:18:56;;;;;;;1.60;1.43;;;;;;;22.83;38.20;95004.16;6140320;28;103886;-58
2022/04/27 00:21:58;;;;;;;1.67;1.50;;;;;;;22.80;38.34;95004.78;6145174;28;104860;-59
2022/04/27 00:25:04;;;;;;;1.80;1.60;;;;;;;22.80;38.38;94994.13;6143394;28;103808;-59
2022/04/27 00:28:06;;;;;;;2.13;1.43;;;;;;;22.76;38.41;95003.84;6134346;28;103538;-60
2022/04/27 00:31:07;;;;;;;1.97;1.70;;;;;;;22.79;37.83;94997.88;6133410;28;102844;-59
2022/04/27 00:34:09;;;;;;;1.70;1.17;;;;;;;22.77;38.39;94995.53;6138545;28;103740;-59
2022/04/27 00:37:11;;;;;;;1.70;1.60;;;;;;;22.75;38.00;94991.59;6138751;28;104995;-60
2022/04/27 00:40:12;;;;;;;2.13;1.40;;;;;;;22.73;38.18;94991.13;6129039;28;104932;-60
2022/04/27 00:43:35;;;;;;;2.53;1.50;;;;;;;22.77;37.94;94992.06;6139099;28;105017;-60
2022/04/27 00:46:37;;;;;;;1.80;1.50;;;;;;;22.75;38.51;94999.59;6143637;28;104492;-60
2022/04/27 00:49:46;;;;;;;3.10;1.40;;;;;;;22.76;38.02;94993.16;6131726;28;103734;-60
2022/04/27 00:52:49;;;;;;;2.00;1.50;;;;;;;22.75;38.13;94992.38;6128165;28;104526;-59
2022/04/27 00:55:51;;;;;;;1.80;1.70;;;;;;;22.78;37.86;95001.66;6137931;28;103956;-59
2022/04/27 00:58:53;;;;;;;1.57;1.30;;;;;;;22.76;37.95;95001.19;6153461;28;104164;-59
2022/04/27 01:01:54;;;;;;;1.43;1.33;;;;;;;22.74;38.38;94995.38;6133637;28;103892;-60
2022/04/27 01:04:57;;;;;;;1.93;1.40;;;;;;;22.74;38.37;95000.69;6133653;28;104705;-59
2022/04/27 01:08:00;;;;;;;1.30;1.17;;;;;;;22.71;37.94;94996.78;6138999;28;105086;-59
2022/04/27 01:11:03;;;;;;;4.70;1.50;;;;;;;22.73;37.90;94997.25;6136743;28;105013;-59
2022/04/27 01:14:05;;;;;;;1.40;1.27;;;;;;;22.75;37.91;94995.06;6126385;28;105049;-59
2022/04/27 01:17:06;;;;;;;1.33;1.10;;;;;;;22.71;38.14;94991.44;6137558;28;103850;-60
2022/04/27 01:20:08;;;;;;;1.50;1.30;;;;;;;22.68;38.00;94990.19;6144711;28;103872;-59
2022/04/27 01:23:14;;;;;;;1.57;1.30;;;;;;;22.66;38.04;94994.22;6136831;28;103489;-56
2022/04/27 01:26:16;;;;;;;2.40;1.60;;;;;;;22.68;37.90;94986.69;6135213;28;103887;-56
2022/04/27 01:29:19;;;;;;;1.67;1.17;;;;;;;22.68;38.42;94987.53;6159861;28;104299;-59
2022/04/27 01:32:21;;;;;;;1.30;1.10;;;;;;;22.67;38.34;94985.91;6136625;28;103793;-60
2022/04/27 01:35:23;;;;;;;1.60;1.30;;;;;;;22.66;38.05;94984.34;6143717;28;104982;-60
2022/04/27 01:38:25;;;;;;;1.43;1.30;;;;;;;22.68;38.41;94986.69;6140343;28;103663;-59
2022/04/27 01:41:26;;;;;;;2.03;1.40;;;;;;;22.67;38.50;94985.91;6135810;28;104581;-58
2022/04/27 01:44:28;;;;;;;2.03;1.37;;;;;;;22.66;38.43;94992.34;6145205;28;104909;-60
2022/04/27 01:47:30;;;;;;;2.27;1.30;;;;;;;22.70;38.26;94979.19;6155770;28;104697;-56
2022/04/27 01:50:32;;;;;;;1.60;1.50;;;;;;;22.69;38.13;94985.63;6146987;28;103913;-59
2022/04/27 01:56:54;;;;;;;1.90;1.37;;;;;;;22.66;37.96;94988.91;6137186;28;103816;-57
2022/04/27 01:59:56;;;;;;;1.37;1.27;;;;;;;22.66;38.20;94981.69;6126702;28;104931;-58
2022/04/27 02:02:59;;;;;;;1.10;1.03;;;;;;;22.65;38.33;94977.44;6135193;28;104781;-57
2022/04/27 02:06:01;;;;;;;1.93;1.00;;;;;;;22.65;38.03;94977.44;6145602;28;104846;-57
2022/04/27 02:09:04;;;;;;;2.10;1.40;;;;;;;22.65;38.32;94982.78;6148533;28;104872;-57
2022/04/27 02:12:06;;;;;;;1.40;1.30;;;;;;;22.66;37.94;94972.91;6128406;28;104252;-57
2022/04/27 02:15:09;;;;;;;1.57;1.47;;;;;;;22.65;37.77;94980.13;6141274;28;103977;-57
2022/04/27 02:18:10;;;;;;;1.30;1.20;;;;;;;22.66;38.19;94973.69;6136439;28;103930;-56
2022/04/27 02:21:12;;;;;;;1.80;1.23;;;;;;;22.63;37.97;94970.84;6142507;28;103867;-57
2022/04/27 02:24:14;;;;;;;1.80;1.40;;;;;;;22.63;37.84;94981.53;6137963;28;105286;-57
2022/04/27 02:27:15;;;;;;;1.47;1.37;;;;;;;22.62;37.79;94975.41;6136674;28;104834;-57
2022/04/27 02:30:18;;;;;;;3.20;1.77;;;;;;;22.63;37.95;94974.31;6136330;28;105045;-58
2022/04/27 02:33:20;;;;;;;2.00;1.67;;;;;;;22.63;37.83;94973.53;6130996;28;105156;-57
2022/04/27 02:36:22;;;;;;;1.70;1.53;;;;;;;22.64;37.74;94975.88;6154847;28;104373;-59
2022/04/27 02:39:23;;;;;;;1.67;1.57;;;;;;;22.65;37.91;94979.31;6136325;28;104164;-58
2022/04/27 02:42:26;;;;;;;2.50;1.80;;;;;;;22.61;38.46;94975.72;6136821;28;105062;-57
2022/04/27 02:45:28;;;;;;;2.43;1.70;;;;;;;22.64;37.92;94983.88;6142571;28;104522;-57
2022/04/27 02:48:29;;;;;;;1.93;1.77;;;;;;;22.65;38.05;94972.13;6153402;28;103754;-57
2022/04/27 02:51:49;;;;;;;1.80;1.70;;;;;;;22.61;38.27;94978.38;6136685;28;103994;-57
2022/04/27 02:54:51;;;;;;;2.33;1.60;;;;;;;22.63;38.27;94968.19;6142380;28;103707;-57
2022/04/27 02:57:53;;;;;;;1.83;1.70;;;;;;;22.61;38.40;94971.16;6146689;28;104850;-57
2022/04/27 03:00:55;;;;;;;1.70;1.60;;;;;;;22.65;38.12;94968.66;6135330;28;104181;-58
2022/04/27 03:03:57;;;;;;;3.13;1.80;;;;;;;22.63;38.16;94979.63;6160395;28;105054;-57
2022/04/27 03:06:58;;;;;;;2.60;1.97;;;;;;;22.50;38.89;94980.50;6153557;28;103609;-53
2022/04/27 03:10:00;;;;;;;2.30;1.50;;;;;;;22.34;39.07;94980.16;6144083;28;104741;-54
2022/04/27 03:13:02;;;;;;;1.97;1.73;;;;;;;22.24;39.03;94977.00;6136964;28;104943;-54
2022/04/27 03:16:04;;;;;;;1.90;1.80;;;;;;;22.25;38.68;94981.22;6151838;28;105000;-54
2022/04/27 03:19:06;;;;;;;4.20;1.77;;;;;;;22.22;38.18;94979.19;6133202;28;103658;-56
2022/04/27 03:22:08;;;;;;;4.30;2.20;;;;;;;22.18;38.15;94988.84;6140867;28;103915;-55
2022/04/27 03:25:10;;;;;;;3.77;2.10;;;;;;;22.19;38.37;94996.56;6143860;28;104353;-56
2022/04/27 03:28:12;;;;;;;3.73;1.90;;;;;;;22.37;38.24;95000.09;6135072;28;104900;-56
2022/04/27 03:31:14;;;;;;;3.70;2.10;;;;;;;22.44;38.17;94992.44;6134745;28;104836;-56
2022/04/27 03:34:15;;;;;;;3.60;1.87;;;;;;;22.46;38.56;94995.56;6158733;28;105049;-57
2022/04/27 03:37:17;;;;;;;6.10;2.33;;;;;;;22.49;38.67;94991.50;6151950;28;103877;-56
2022/04/27 03:40:21;;;;;;;3.13;2.00;;;;;;;22.50;38.57;94998.38;6144215;28;104932;-56
2022/04/27 03:43:23;;;;;;;2.07;1.97;;;;;;;22.49;38.52;95000.28;6126863;28;103453;-57
2022/04/27 03:46:25;;;;;;;4.67;2.50;;;;;;;22.44;38.64;95008.41;6150212;28;103445;-57
2022/04/27 03:49:47;;;;;;;5.77;2.73;;;;;;;22.36;38.68;95001.97;6140505;28;103397;-57
2022/04/27 03:52:48;;;;;;;5.50;2.43;;;;;;;22.36;38.57;95012.66;6133545;28;104630;-56
2022/04/27 03:55:50;;;;;;;8.90;2.57;;;;;;;22.38;38.36;95021.13;6139365;28;104653;-56
2022/04/27 03:58:52;;;;;;;7.13;3.03;;;;;;;22.41;38.36;95019.72;6138653;28;104723;-56
2022/04/27 04:01:53;;;;;;;3.40;2.67;;;;;;;22.44;38.34;95024.41;6135991;28;103663;-56
2022/04/27 04:04:55;;;;;;;7.17;3.03;;;;;;;22.45;38.63;95030.53;6125559;28;103590;-56
2022/04/27 04:07:57;;;;;;;7.27;2.70;;;;;;;22.44;38.67;95027.09;6135504;28;104179;-56
2022/04/27 04:10:59;;;;;;;4.93;2.60;;;;;;;22.51;39.99;95032.75;6133426;28;105029;-57
2022/04/27 04:14:01;;;;;;;6.97;2.40;;;;;;;22.52;39.06;95037.00;6139210;28;103724;-56
2022/04/27 04:17:03;;;;;;;7.30;2.90;;;;;;;22.51;39.27;95040.75;6145244;28;104653;-57
2022/04/27 04:20:05;;;;;;;4.50;3.30;;;;;;;22.40;40.05;95034.13;6135759;28;103746;-56
2022/04/27 04:23:07;;;;;;;5.53;2.53;;;;;;;22.46;39.59;95037.44;6138162;28;104980;-56
2022/04/27 04:29:31;;;;;;;5.43;2.90;;;;;;;22.55;38.92;95047.06;6132991;28;105873;-57
2022/04/27 04:32:37;;;;;;;5.40;2.70;;;;;;;22.59;39.15;95044.59;6134211;28;104134;-56
2022/04/27 04:35:39;;;;;;;5.40;2.30;;;;;;;22.61;39.16;95039.72;6135120;28;104964;-56
2022/04/27 04:38:40;;;;;;;6.77;2.60;;;;;;;22.50;39.16;95035.72;6124632;28;103594;-56
2022/04/27 04:41:42;;;;;;;4.17;2.43;;;;;;;22.59;38.94;95055.25;6133214;28;103849;-56
2022/04/27 04:44:44;;;;;;;5.87;2.50;;;;;;;22.61;39.02;95055.72;6132600;28;104913;-56
2022/04/27 04:47:45;;;;;;;6.17;2.80;;;;;;;22.61;38.97;95061.84;6118781;28;104670;-56
2022/04/27 04:50:52;;;;;;;5.80;2.80;;;;;;;22.61;39.22;95069.84;6127010;28;105201;-56
2022/04/27 04:53:54;;;;;;;4.50;2.50;;;;;;;22.60;39.47;95065.63;6136924;28;104002;-56
2022/04/27 04:56:56;;;;;;;4.90;2.90;;;;;;;22.62;39.09;95071.44;6120040;28;104785;-56
2022/04/27 04:59:58;;;;;;;7.47;2.67;;;;;;;22.62;38.90;95081.31;6135554;28;104176;-56
2022/04/27 05:02:59;;;;;;;3.27;2.30;;;;;;;22.63;38.97;95067.66;6131753;28;103083;-56
2022/04/27 05:06:03;;;;;;;3.17;2.40;;;;;;;22.62;39.25;95079.44;6139151;28;104807;-57
2022/04/27 05:09:04;;;;;;;5.60;2.27;;;;;;;22.62;38.85;95079.44;6138286;28;104685;-56
2022/04/27 05:12:06;;;;;;;4.40;2.20;;;;;;;22.62;39.62;95074.09;6128514;28;105116;-57
2022/04/27 05:15:09;;;;;;;4.23;2.70;;;;;;;22.60;39.31;95075.50;6138503;28;103350;-56
2022/04/27 05:18:11;;;;;;;2.77;2.50;;;;;;;22.58;39.22;95067.81;6138096;28;104663;-56
2022/04/27 05:21:13;;;;;;;3.07;2.40;;;;;;;22.63;39.21;95077.53;6138923;28;105054;-56
2022/04/27 05:24:15;;;;;;;4.37;3.00;;;;;;;22.61;39.53;95075.19;6128660;28;103965;-56
2022/04/27 05:27:17;;;;;;;4.10;2.60;;;;;;;22.61;39.23;95077.84;6138833;28;104900;-57
2022/04/27 05:33:39;;;;;;;2.40;2.20;;;;;;;22.62;39.32;95076.75;6137779;28;105193;-56
2022/04/27 05:36:41;;;;;;;2.60;2.40;;;;;;;22.67;39.08;95081.16;6128367;28;104443;-56
2022/04/27 05:39:43;;;;;;;5.03;2.50;;;;;;;22.76;39.11;95078.53;6138016;28;103707;-56
2022/04/27 05:42:48;;;;;;;3.40;2.57;;;;;;;22.84;39.20;95077.78;6138859;28;103974;-56
2022/04/27 05:45:51;;;;;;;5.27;3.60;;;;;;;22.93;39.15;95083.94;6132904;28;103800;-56
2022/04/27 05:48:53;;;;;;;6.37;2.60;;;;;;;23.05;38.74;95076.13;6134406;28;104869;-57
2022/04/27 05:51:55;;;;;;;3.07;2.67;;;;;;;23.15;39.50;95075.81;6138443;28;104665;-56
2022/04/27 05:54:56;;;;;;;3.10;2.77;;;;;;;23.19;39.25;95084.00;6138311;28;104757;-57
2022/04/27 05:57:59;;;;;;;3.03;2.70;;;;;;;23.26;39.96;95076.31;6127118;28;104036;-57
2022/04/27 06:01:01;;;;;;;2.73;2.53;;;;;;;23.33;39.14;95078.53;6120666;28;105646;-57
2022/04/27 06:04:03;;;;;;;3.73;3.00;;;;;;;23.38;39.25;95075.75;6137707;28;103672;-57
2022/04/27 06:07:07;;;;;;;3.30;2.70;;;;;;;23.42;39.06;95076.69;6138556;28;104994;-57
2022/04/27 06:10:10;;;;;;;2.57;2.37;;;;;;;23.48;39.34;95078.09;6127480;28;103771;-56
2022/04/27 06:13:13;;;;;;;2.10;1.90;;;;;;;23.50;39.63;95082.00;6138308;28;104804;-56
2022/04/27 06:16:15;;;;;;;4.07;2.70;;;;;;;23.56;39.35;95075.44;6137661;28;104718;-57
2022/04/27 06:19:17;;;;;;;3.60;2.90;;;;;;;23.59;39.32;95079.34;6136294;28;103696;-55
2022/04/27 06:22:22;;;;;;;3.87;3.27;;;;;;;23.63;39.61;95085.63;6129381;28;104044;-56
2022/04/27 06:25:25;;;;;;;3.10;2.80;;;;;;;23.66;39.26;95084.22;6120496;28;103782;-56
2022/04/27 06:28:27;;;;;;;3.23;2.60;;;;;;;23.67;39.10;95080.44;6120651;28;104882;-56
2022/04/27 06:31:30;;;;;;;3.50;2.53;;;;;;;23.68;39.59;95085.47;6127936;28;104569;-56
2022/04/27 06:34:32;;;;;;;2.83;2.30;;;;;;;23.69;39.13;95084.41;6136927;28;104743;-56
2022/04/27 06:37:35;;;;;;;2.77;2.50;;;;;;;23.70;39.20;95080.63;6137756;28;104671;-56
2022/04/27 06:40:36;;;;;;;4.20;2.30;;;;;;;23.73;39.07;95088.00;6120152;28;103826;-56
2022/04/27 06:43:38;;;;;;;3.73;2.50;;;;;;;23.74;38.96;95080.78;6128241;28;104741;-56
2022/04/27 06:46:40;;;;;;;4.63;2.77;;;;;;;23.78;39.17;95085.16;6137161;28;103672;-56
2022/04/27 06:49:42;;;;;;;2.57;2.30;;;;;;;23.79;39.17;95073.38;6137165;28;103563;-56
2022/04/27 06:52:46;;;;;;;2.47;2.27;;;;;;;23.83;39.09;95081.53;6137323;28;105117;-57
2022/04/27 06:55:50;;;;;;;3.70;2.40;;;;;;;23.87;38.98;95083.28;6126785;28;104704;-56
2022/04/27 06:58:52;;;;;;;2.97;2.77;;;;;;;23.96;39.02;95085.16;6137302;28;103935;-56
2022/04/27 07:01:54;;;;;;;2.40;2.20;;;;;;;23.98;39.11;95089.06;6136976;28;104908;-56
2022/04/27 07:05:00;;;;;;;3.53;2.57;;;;;;;24.00;38.97;95088.78;6132103;28;103488;-56
2022/04/27 07:08:02;;;;;;;3.10;2.70;;;;;;;24.04;39.60;95089.75;6131764;28;105071;-56
2022/04/27 07:11:04;;;;;;;7.83;3.40;;;;;;;24.06;40.10;95080.31;6135926;28;103997;-56
2022/04/27 07:14:05;;;;;;;3.83;3.10;;;;;;;24.08;40.04;95082.66;6137195;28;105225;-56
2022/04/27 07:17:07;;;;;;;4.03;3.13;;;;;;;24.12;40.70;95094.28;6126651;28;104068;-56
2022/04/27 07:20:09;;;;;;;5.90;3.30;;;;;;;24.12;40.51;95086.25;6136673;28;104501;-56
2022/04/27 07:23:11;;;;;;;3.93;3.07;;;;;;;24.12;40.58;95089.72;6136245;28;104897;-59
2022/04/27 07:26:13;;;;;;;4.03;3.27;;;;;;;24.16;40.75;95087.19;6136989;28;104125;-56
2022/04/27 07:29:15;;;;;;;4.43;2.93;;;;;;;24.16;40.79;95090.66;6125733;28;103736;-56
2022/04/27 07:32:22;;;;;;;6.20;3.40;;;;;;;24.18;40.35;95084.97;6136590;28;103759;-56
2022/04/27 07:35:24;;;;;;;3.80;3.20;;;;;;;24.19;40.53;95082.03;6135703;28;103553;-57
2022/04/27 07:38:27;;;;;;;8.63;2.93;;;;;;;24.22;40.25;95085.94;6136207;28;105011;-56
2022/04/27 07:41:28;;;;;;;4.80;3.07;;;;;;;24.21;40.24;95080.91;6125848;28;104935;-56
2022/04/27 07:44:30;;;;;;;3.87;3.17;;;;;;;24.24;40.17;95088.28;6135762;28;104145;-56
2022/04/27 07:47:43;;;;;;;3.93;3.00;;;;;;;24.25;39.80;95079.94;6136268;28;104299;-56
2022/04/27 07:50:45;;;;;;;4.90;3.40;;;;;;;24.25;39.93;95081.84;6130918;28;104978;-57
2022/04/27 07:53:47;;;;;;;5.27;3.83;;;;;;;24.24;39.84;95078.38;6131208;28;105001;-56
2022/04/27 07:56:49;;;;;;;3.80;3.40;;;;;;;24.28;39.83;95073.19;6136300;28;104819;-57
2022/04/27 07:59:51;;;;;;;4.90;3.50;;;;;;;24.26;39.78;95078.84;6135518;28;103717;-56
2022/04/27 08:02:52;;;;;;;3.70;3.30;;;;;;;24.27;39.78;95077.75;6126081;28;103812;-56
2022/04/27 08:05:55;;;;;;;3.80;3.13;;;;;;;24.30;39.64;95078.97;6135225;28;104696;-56
2022/04/27 08:08:58;;;;;;;4.73;3.17;;;;;;;24.32;39.69;95076.78;6135958;28;104667;-56
2022/04/27 08:12:00;;;;;;;3.67;3.10;;;;;;;24.31;39.62;95069.84;6135750;28;103713;-56
2022/04/27 08:15:02;;;;;;;3.90;3.00;;;;;;;24.32;39.37;95074.88;6124520;28;104975;-56
2022/04/27 08:18:08;;;;;;;3.87;3.20;;;;;;;24.32;39.36;95068.75;6135663;28;103447;-56
2022/04/27 08:21:16;;;;;;;3.60;3.23;;;;;;;24.33;39.51;95062.28;6137616;28;105069;-56
2022/04/27 08:24:20;;;;;;;3.07;2.83;;;;;;;24.33;39.31;95065.75;6135763;28;103707;-56
2022/04/27 08:27:22;;;;;;;4.87;3.43;;;;;;;24.34;39.35;95061.97;6134415;28;103958;-57
2022/04/27 08:30:24;;;;;;;4.60;3.63;;;;;;;24.34;39.65;95056.63;6139566;28;103853;-56
2022/04/27 08:33:26;;;;;;;3.53;3.07;;;;;;;24.35;39.52;95052.06;6139716;28;104935;-56
2022/04/27 08:36:28;;;;;;;3.93;3.53;;;;;;;24.37;39.64;95055.22;6128581;28;103401;-56
2022/04/27 08:39:31;;;;;;;3.70;3.40;;;;;;;24.36;39.76;95045.59;6139427;28;103675;-56
2022/04/27 08:42:34;;;;;;;3.50;3.20;;;;;;;24.35;39.92;95047.50;6139598;28;103851;-56
2022/04/27 08:45:37;;;;;;;5.30;3.77;;;;;;;24.37;39.76;95050.66;6139162;28;104956;-56
2022/04/27 08:48:39;;;;;;;3.53;3.20;;;;;;;24.37;39.83;95053.34;6129199;28;104701;-56
2022/04/27 08:51:41;;;;;;;5.00;3.87;;;;;;;24.37;39.81;95045.31;6139003;28;104784;-56
2022/04/27 08:54:49;;;;;;;4.30;3.83;;;;;;;24.40;39.71;95050.03;6153698;28;104799;-56
2022/04/27 08:58:06;;;;;;;5.30;4.37;;;;;;;24.40;39.63;95047.34;6139467;28;104842;-56
2022/04/27 09:01:27;;;;;;;4.03;3.63;;;;;;;24.41;39.44;95040.09;6133887;28;103887;-56
2022/04/27 09:04:30;;;;;;;5.13;3.70;;;;;;;24.41;39.63;95040.88;6139188;28;103822;-56
2022/04/27 09:07:39;;;;;;;4.70;4.17;;;;;;;24.43;39.56;95037.88;6138466;28;104300;-56
2022/04/27 09:10:40;;;;;;;4.10;3.70;;;;;;;24.41;39.58;95034.75;6128834;28;105173;-56
2022/04/27 09:13:50;;;;;;;4.30;3.90;;;;;;;24.43;39.45;95033.31;6138732;28;105375;-57
2022/04/27 09:23:42;;;;;;;3.80;3.50;;;;;;;24.42;39.27;95018.38;6128336;28;103958;-57
2022/04/27 09:26:43;;;;;;;4.03;3.73;;;;;;;24.41;39.28;95011.47;6138956;28;104997;-57
2022/04/27 09:29:58;;;;;;;4.10;3.80;;;;;;;24.40;39.33;95012.56;6139282;28;103833;-58
2022/04/27 09:33:00;;;;;;;5.90;4.33;;;;;;;24.40;39.36;95011.78;6130636;28;104448;-56
2022/04/27 09:36:22;;;;;;;4.50;4.13;;;;;;;24.39;39.18;95007.53;6135893;28;106074;-57
2022/04/27 09:39:27;;;;;;;3.97;3.67;;;;;;;24.39;39.40;95002.97;6137976;28;104312;-57
2022/04/27 09:42:45;;;;;;;3.97;3.67;;;;;;;24.37;39.25;95001.72;6136791;28;106179;-57
2022/04/27 09:45:47;;;;;;;4.77;4.27;;;;;;;24.37;39.00;95001.72;6127392;28;104583;-57
2022/04/27 09:49:08;;;;;;;3.97;3.70;;;;;;;24.35;39.01;95002.03;6138680;28;104777;-57
2022/04/27 09:52:31;;;;;;;4.03;3.73;;;;;;;24.36;39.34;94990.25;6138138;28;105963;-57
2022/04/27 09:55:33;;;;;;;4.83;3.97;;;;;;;24.35;39.33;94983.31;6132624;28;104946;-57
2022/04/27 09:58:43;;;;;;;4.03;3.73;;;;;;;24.33;39.36;94985.53;6132863;28;103681;-57
2022/04/27 10:01:47;;;;;;;3.63;3.33;;;;;;;24.31;39.49;94987.72;6137871;28;103936;-57
2022/04/27 10:04:51;;;;;;;4.83;4.10;;;;;;;24.32;39.48;94983.94;6137464;28;104024;-57
2022/04/27 10:07:53;;;;;;;3.93;3.63;;;;;;;24.31;39.17;94987.72;6127869;28;105152;-57
2022/04/27 10:10:56;;;;;;;5.37;4.37;;;;;;;24.31;39.29;94989.63;6137305;28;104823;-57
2022/04/27 10:14:00;;;;;;;4.67;4.13;;;;;;;24.30;39.31;94988.06;6137241;28;104857;-56
2022/04/27 10:17:01;;;;;;;4.47;4.10;;;;;;;24.28;39.38;94982.25;6137851;28;105234;-59
2022/04/27 10:20:27;;;;;;;5.47;5.07;;;;;;;24.27;39.18;94978.78;6126831;28;103897;-57
2022/04/27 10:23:31;;;;;;;5.50;5.10;;;;;;;24.27;39.22;94978.00;6137413;28;103927;-57
2022/04/27 10:26:33;;;;;;;5.83;4.67;;;;;;;24.25;39.31;94967.63;6137301;28;103146;-56
2022/04/27 10:29:35;;;;;;;5.43;4.93;;;;;;;24.24;39.55;94974.09;6133211;28;104421;-57
2022/04/27 10:32:43;;;;;;;5.10;4.67;;;;;;;24.23;39.41;94964.50;6132420;28;104726;-57
2022/04/27 10:35:46;;;;;;;5.43;5.03;;;;;;;24.22;39.39;94968.28;6137596;28;105190;-57
2022/04/27 10:39:33;;;;;;;5.57;5.13;;;;;;;24.21;39.23;94961.38;6137666;28;103665;-57
2022/04/27 10:42:35;;;;;;;5.30;4.90;;;;;;;24.19;39.47;94955.53;6014224;28;105254;-57
2022/04/27 10:45:45;;;;;;;5.83;5.43;;;;;;;24.19;39.35;94950.19;6137252;28;104104;-57
2022/04/27 10:48:50;;;;;;;6.23;5.83;;;;;;;24.16;39.39;94953.50;6137243;28;104350;-57
2022/04/27 10:52:06;;;;;;;6.90;6.40;;;;;;;24.16;39.36;94938.25;6134654;28;105231;-56
2022/04/27 10:55:47;;;;;;;6.27;5.77;;;;;;;24.15;39.28;94934.00;6130758;28;103936;-57
2022/04/27 10:58:50;;;;;;;7.53;6.93;;;;;;;24.15;39.21;94939.34;6136882;28;104965;-57
2022/04/27 11:01:52;;;;;;;7.27;6.67;;;;;;;24.11;39.25;94921.59;6136910;28;104790;-57
2022/04/27 11:04:54;;;;;;;8.17;7.53;;;;;;;24.14;39.04;94928.97;6126515;28;104760;-56
2022/04/27 11:08:01;;;;;;;7.70;7.13;;;;;;;24.11;39.36;94919.72;6137184;28;104018;-57
2022/04/27 11:11:06;;;;;;;7.70;7.10;;;;;;;24.11;38.96;94921.59;6136691;28;104864;-56
2022/04/27 11:14:12;;;;;;;7.83;7.23;;;;;;;24.10;39.12;94918.16;6135844;28;104689;-57
2022/04/27 11:17:29;;;;;;;8.20;7.60;;;;;;;24.11;39.32;94916.25;6126156;28;103886;-55
2022/04/27 11:20:37;;;;;;;8.07;7.47;;;;;;;24.13;38.98;94912.16;6136410;28;104327;-54
2022/04/27 11:23:39;;;;;;;7.60;7.00;;;;;;;24.14;39.23;94905.69;6136798;28;103417;-54
2022/04/27 11:26:46;;;;;;;7.70;7.10;;;;;;;24.13;38.87;94901.47;6127200;28;104727;-55
2022/04/27 11:29:51;;;;;;;6.90;6.33;;;;;;;24.13;39.07;94900.69;6135999;28;103643;-55
2022/04/27 11:32:53;;;;;;;8.00;7.40;;;;;;;24.12;39.29;94899.91;6136216;28;104107;-54
2022/04/27 11:35:55;;;;;;;7.60;7.10;;;;;;;24.12;39.08;94891.09;6135907;28;103549;-55
2022/04/27 11:38:57;;;;;;;7.23;6.73;;;;;;;24.10;39.12;94901.31;6125938;28;103644;-55
2022/04/27 11:42:00;;;;;;;6.70;6.20;;;;;;;24.11;38.85;94886.84;6136440;28;103842;-55
2022/04/27 11:45:01;;;;;;;7.23;6.73;;;;;;;24.08;39.31;94884.81;6135360;28;103685;-55
2022/04/27 11:48:06;;;;;;;7.23;6.63;;;;;;;24.07;39.44;94878.69;6136139;28;105204;-55
2022/04/27 11:51:07;;;;;;;7.20;6.60;;;;;;;24.06;38.88;94873.66;6126574;28;103589;-55
2022/04/27 11:54:10;;;;;;;7.03;6.53;;;;;;;24.03;39.14;94872.44;6136094;28;104067;-55
2022/04/27 11:57:20;;;;;;;6.60;6.10;;;;;;;24.03;39.23;94877.00;6135288;28;105385;-55
2022/04/27 12:00:26;;;;;;;6.50;6.00;;;;;;;24.03;39.09;94872.44;6131197;28;103855;-55
2022/04/27 12:03:32;;;;;;;7.00;6.40;;;;;;;24.02;39.14;94870.06;6130534;28;103540;-55
2022/04/27 12:06:35;;;;;;;6.90;6.40;;;;;;;24.01;39.31;94857.78;6137042;28;103703;-54
2022/04/27 12:09:36;;;;;;;6.37;5.87;;;;;;;24.00;39.05;94859.69;6136538;28;103022;-55
2022/04/27 12:12:39;;;;;;;6.80;6.30;;;;;;;23.97;39.44;94846.16;6124961;28;103917;-55
2022/04/27 12:15:43;;;;;;;6.33;5.90;;;;;;;23.99;39.08;94851.97;6134626;28;103869;-55
2022/04/27 12:18:53;;;;;;;7.00;6.40;;;;;;;23.99;38.81;94842.06;6136168;28;103827;-56
2022/04/27 12:22:14;;;;;;;7.00;6.50;;;;;;;23.97;39.24;94848.84;6136468;28;104981;-56
2022/04/27 12:25:16;;;;;;;7.13;6.53;;;;;;;23.96;39.10;94836.56;6126579;28;104996;-55
2022/04/27 12:28:19;;;;;;;6.40;5.80;;;;;;;23.95;39.23;94829.66;6136081;28;104788;-55
2022/04/27 12:31:26;;;;;;;7.13;6.50;;;;;;;23.92;38.99;94830.31;6135987;28;103739;-54
2022/04/27 12:37:50;;;;;;;5.87;5.43;;;;;;;23.91;39.11;94824.19;6135629;28;103671;-53
2022/04/27 12:40:52;;;;;;;6.27;5.73;;;;;;;23.92;38.66;94825.75;6135710;28;103692;-56
2022/04/27 12:43:54;;;;;;;5.60;5.20;;;;;;;23.90;38.92;94825.28;6135806;28;103719;-55
2022/04/27 12:47:16;;;;;;;5.60;5.20;;;;;;;23.88;39.18;94820.28;6124032;28;106165;-56
2022/04/27 12:50:19;;;;;;;6.23;5.83;;;;;;;23.89;39.05;94811.16;6136233;28;105431;-55
2022/04/27 12:53:21;;;;;;;6.07;5.60;;;;;;;23.87;39.20;94805.34;6135510;28;103746;-55
2022/04/27 12:56:30;;;;;;;6.13;5.63;;;;;;;23.86;38.86;94811.78;6134710;28;103671;-55
2022/04/27 12:59:32;;;;;;;5.93;5.50;;;;;;;23.84;39.03;94811.31;6125042;28;103628;-55
2022/04/27 13:02:34;;;;;;;5.80;5.40;;;;;;;23.86;39.12;94811.78;6135729;28;104849;-55
2022/04/27 13:05:38;;;;;;;6.50;6.00;;;;;;;23.87;38.88;94812.56;6135299;28;104673;-56
2022/04/27 13:08:39;;;;;;;6.53;5.60;;;;;;;23.86;38.79;94798.44;6132615;28;103670;-54
2022/04/27 13:11:56;;;;;;;5.27;4.87;;;;;;;23.86;38.91;94811.00;6133926;28;103619;-55
2022/04/27 13:15:01;;;;;;;5.90;5.40;;;;;;;23.85;38.95;94802.19;6138848;28;103903;-55
2022/04/27 13:18:03;;;;;;;6.40;5.90;;;;;;;23.85;38.68;94804.84;6138480;28;104743;-54
2022/04/27 13:21:05;;;;;;;5.60;5.07;;;;;;;23.85;38.90;94807.53;6128619;28;103804;-55
2022/04/27 13:24:07;;;;;;;5.77;5.30;;;;;;;23.84;38.65;94807.84;6139419;28;103765;-55
2022/04/27 13:27:08;;;;;;;5.63;5.20;;;;;;;23.85;38.71;94804.84;6138583;28;104303;-54
2022/04/27 13:30:10;;;;;;;6.13;5.70;;;;;;;23.84;38.80;94799.84;6121657;28;104668;-54
2022/04/27 13:33:12;;;;;;;4.87;4.57;;;;;;;23.84;39.08;94795.28;6127909;28;104736;-58
2022/04/27 13:36:14;;;;;;;6.10;5.60;;;;;;;23.85;38.90;94802.19;6138610;28;103699;-55
2022/04/27 13:39:17;;;;;;;5.17;4.87;;;;;;;23.85;38.68;94796.84;6138637;28;104060;-55
2022/04/27 13:42:19;;;;;;;5.50;5.10;;;;;;;23.84;38.89;94800.63;6134147;28;104788;-55
2022/04/27 13:45:21;;;;;;;5.70;5.30;;;;;;;23.85;38.73;94807.53;6133028;28;103411;-56
2022/04/27 13:48:23;;;;;;;5.47;5.07;;;;;;;23.84;38.65;94802.50;6137557;28;103905;-56
2022/04/27 13:51:24;;;;;;;6.23;5.73;;;;;;;23.84;38.86;94803.28;6138973;28;103469;-55
2022/04/27 13:54:27;;;;;;;5.53;5.13;;;;;;;23.82;38.81;94800.16;6127725;28;105861;-54
2022/04/27 13:57:29;;;;;;;5.07;4.67;;;;;;;23.81;38.63;94801.28;6137899;28;103773;-55
2022/04/27 14:00:31;;;;;;;5.70;5.20;;;;;;;23.83;38.81;94800.94;6138620;28;103817;-54
2022/04/27 14:03:32;;;;;;;5.47;5.10;;;;;;;23.82;38.87;94802.84;6137908;28;104032;-55
2022/04/27 14:06:34;;;;;;;5.60;5.20;;;;;;;23.82;38.71;94799.38;6126593;28;104506;-56
2022/04/27 14:09:37;;;;;;;5.30;4.80;;;;;;;23.81;38.73;94797.81;6137992;28;103876;-56
2022/04/27 14:19:22;;;;;;;5.33;4.87;;;;;;;23.79;38.90;94795.47;6130761;28;104996;-56
2022/04/27 14:22:26;;;;;;;5.53;5.13;;;;;;;23.82;38.82;94792.16;6137886;28;103779;-55
2022/04/27 14:25:28;;;;;;;5.20;4.70;;;;;;;23.83;38.70;94807.06;6137158;28;104379;-55
2022/04/27 14:28:31;;;;;;;4.90;4.60;;;;;;;23.81;38.67;94814.63;6127877;28;105118;-54
2022/04/27 14:31:33;;;;;;;5.60;5.20;;;;;;;23.82;38.60;94799.38;6135719;28;103994;-55
2022/04/27 14:34:35;;;;;;;5.33;4.93;;;;;;;23.82;38.62;94805.50;6132507;28;104644;-55
2022/04/27 14:37:37;;;;;;;5.20;4.80;;;;;;;23.85;38.98;94812.09;6113045;28;103810;-56
2022/04/27 14:40:39;;;;;;;4.80;4.50;;;;;;;23.83;38.98;94806.28;6103764;28;103879;-56